sábado, 1 de janeiro de 2011

AVIÃO DA PASSAREDO DERRAPA E FICA ATRAVESSADO NA PISTA DE RIBEIRÃO PRETO, SÃO PALO


Um avião derrapou durante o pouso na tarde deste sábado (1º) no Aeroporto Estadual Dr. Leite Lopes, em Ribeirão Petro, no interior de São Paulo. De acordo com a Empresa Brasileira de Infraestrutura Aeroportuária (Infraero), o acidente aconteceu por volta das 17h. A pista se encontrava molhada no momento da aterrissagem. Ninguém se feriu.

O avião, que saiu de Maceió, foi removido da pista por volta das 20h. Passageiros que aguardavam viagem tiveram seus voos cancelados ou remarcados para outros horários. Segundo a Infraero, o aeroporto teve de ser fechado para pousos e decolagens. Até as 20h45, ele ainda não havia sido reaberto.

Metars:
SBRP 012000Z 34002KT 7000 -RA FEW007 BKN030 FEW040TCU 23/23 Q1006 RETS
SBRP 011900Z 30005KT 2500 -TSRA BKN030 FEW040CB 23/23 Q1005 RERA
SBRP 011800Z 07011G23KT 1000 +TSRA BKN030 SCT040CB 22/22 Q1007
SBRP 011700Z 08008KT 9999 TS VCSH BKN035 FEW040CB 30/24 Q1005
SBRP 011600Z 33005KT 9999 BKN035 FEW040TCU 31/24 Q1006
SBRP 011500Z 29004KT 9999 BKN035 FEW040TCU 31/23 Q1007 



Nota01/01/11 20:09 - 02/01/11 23:00
RWY 18/36 CLSD DEVIDO ACFT ACIDENTADA) 

fonte/foto/AE/G1/AvHerald
Enhanced by Zemanta

ACIDENTE AÉREO NA RÚSSIA DEIXA 3 MORTOS E 46 FERIDOS


Imagem tirada do canal de televisão Russia 24 mostra parte da cauda de um avião de passageiros TU-154 que explodiu na pista de um aeroporto na Sibéria .... Foto: AP avião de passageiros TU-154 que explodiu na pista de um aeroporto na Sibéria/foto/AP
Foto: AP

Três pessoas morreram e 46 ficaram feridas, neste sábado, no incêndio e explosão de um avião de carreira Tupolev-154B2,  registro RA-85588, realizando o voo 7K-348, no momento em que decolava no aeroporto de Surgut, norte da Rússia, anunciaram as autoridades russas.

Um primeiro balanço deu conta de um morto, mas dois corpos foram encontrados no local da catástrofe, informou a representação para a região dos Urais do ministério russo de Situações de Emergência.

Citando uma fonte da promotoria regional, a agência russa Interfax destacou que entre os mortos está uma criança. "Segundo os últimos dados, 46 pessoas ficaram feridas no incêndio", informou, por sua vez, o porta-voz do ministério de Situações de Emergência, citado pela Itar-Tass.

O Tupolev-154, com 116 passageiros e oito tripulantes a bordo, incendiou no momento em que se preparava para decolar com destino a Moscou, informou a promotoria russa em um comunicado.

Em um primeiro momento, os meios de comunicação russos haviam indicado que o acidente ocorreu quando o avião fazia uma aterrissagem de emergência. "Os serviços de resgate não puderam apagar o incêndio e ocorreu uma explosão", destacou a promotoria. "Os passageiros e a tripulação puderam ser evacuados antes da explosão", acrescentou.

O ministro russo dos Transportes, Igor Levitin, declarou à Interfax que os investigadores não estabeleceram ainda as causas do acidente.

fonte/AFP/Terra
Enhanced by Zemanta

PILOTOS DE AVIÃO QUE INVADIU ESPAÇO AÉREO SÃO INTERROGADOS NOS EUA

Washington, 1 jan (EFE).- Os agentes do Departamento de Segurança Nacional interrogaram nesta tarde os pilotos de um avião da companhia aérea Piedmont que invadiu o espaço aéreo restrito da capital dos Estados Unidos, informaram as autoridades.

Pouco depois do meio-dia a Polícia do Capitólio ordenou a evacuação do Congresso e dos três edifícios onde funcionam os escritórios dos membros da Câmara dos Representantes depois da detecção da invasão aérea.

O Comando de Defesa Aeroespacial da América do Norte mandou aviões de combate F-16 da Base Andrews, no leste de Washington, depois que perdeu o contato por rádio com a cabine do voo 4352 da Piedmont, que procedia de Hilton Head, na Carolina do Sul.

O alarme durou cerca de 15 minutos até que o piloto do avião comercial restabeleceu a comunicação e aterrissou no aeroporto Ronald Reagan National, situado a três quilômetros da Casa Branca.

A Administração Federal de Aviação (FAA na sigla em inglês) indicou que investiga o motivo e como o piloto de um avião da companhia aérea Piedmont perdeu a comunicação com a torre de controle do aeroporto próximo a Washington.

fonte/EFE
Enhanced by Zemanta

MÍSTERIO REVELADO - ANTOINE SAINT-EXUPÉRY...

Foi um segredo guardado durante 64 anos. Horst Rippert, piloto alemão da Luftwaffe, admitiu, aos 88 anos, ter abatido Antoine de St Exu...